createdAt,value
2023-02-09T00:01:53.096Z,11.05
2023-02-09T00:07:00.766Z,11.05
2023-02-09T00:12:25.989Z,11.05
2023-02-09T00:17:34.081Z,11.05
2023-02-09T00:22:41.668Z,11.04
2023-02-09T00:27:49.052Z,11.04
2023-02-09T00:32:56.262Z,11.02
2023-02-09T00:38:03.686Z,11.02
2023-02-09T00:43:12.230Z,11.01
2023-02-09T00:48:19.777Z,11.01
2023-02-09T00:53:27.537Z,11.00
2023-02-09T00:58:34.871Z,11.01
2023-02-09T01:03:42.259Z,11.00
2023-02-09T01:08:51.147Z,10.99
2023-02-09T01:13:59.141Z,10.99
2023-02-09T01:19:06.146Z,10.98
2023-02-09T01:24:15.507Z,10.98
2023-02-09T01:29:23.109Z,10.98
2023-02-09T01:34:30.431Z,10.97
2023-02-09T01:39:37.603Z,10.96
2023-02-09T01:45:01.608Z,10.95
2023-02-09T01:50:09.388Z,10.95
2023-02-09T01:55:17.828Z,10.95
2023-02-09T02:00:25.591Z,10.96
2023-02-09T02:05:33.511Z,10.95
2023-02-09T02:10:40.699Z,10.93
2023-02-09T02:15:55.221Z,10.93
2023-02-09T02:21:17.273Z,10.94
2023-02-09T02:26:39.387Z,10.94
2023-02-09T02:32:09.302Z,10.94
2023-02-09T02:37:29.197Z,10.93
2023-02-09T02:42:53.611Z,10.93
2023-02-09T02:48:03.804Z,10.92
2023-02-09T02:53:13.668Z,10.90
2023-02-09T02:58:22.819Z,10.89
2023-02-09T03:03:34.293Z,10.88
2023-02-09T03:08:52.396Z,10.89
2023-02-09T03:14:13.742Z,10.88
2023-02-09T03:19:27.330Z,10.86
2023-02-09T03:24:37.990Z,10.87
2023-02-09T03:29:46.930Z,10.85
2023-02-09T03:34:54.929Z,10.86
2023-02-09T03:40:02.677Z,10.83
2023-02-09T03:45:10.490Z,10.82
2023-02-09T03:50:18.306Z,10.81
2023-02-09T03:55:25.506Z,10.80
2023-02-09T04:00:32.891Z,10.79
2023-02-09T04:05:40.070Z,10.79
2023-02-09T04:10:47.611Z,10.79
2023-02-09T04:15:55.032Z,10.78
2023-02-09T04:21:04.100Z,10.78
2023-02-09T04:26:11.230Z,10.77
2023-02-09T04:31:18.576Z,10.75
2023-02-09T04:36:25.796Z,10.75
2023-02-09T04:41:33.040Z,10.75
2023-02-09T04:46:40.610Z,10.73
2023-02-09T04:51:47.474Z,10.72
2023-02-09T04:57:14.761Z,10.73
2023-02-09T05:02:22.769Z,10.72
2023-02-09T05:07:30.171Z,10.71
2023-02-09T05:12:37.731Z,10.69
2023-02-09T05:17:44.838Z,10.67
2023-02-09T05:22:52.132Z,10.64
2023-02-09T05:27:59.805Z,10.64
2023-02-09T05:33:07.508Z,10.63
2023-02-09T05:38:15.059Z,10.61
2023-02-09T05:43:22.302Z,10.60
2023-02-09T05:48:29.694Z,10.59
2023-02-09T05:53:36.955Z,10.59
2023-02-09T05:58:44.092Z,10.59
2023-02-09T06:03:51.260Z,10.56
2023-02-09T06:08:59.082Z,10.54
2023-02-09T06:14:06.918Z,10.53
2023-02-09T06:19:15.582Z,10.53
2023-02-09T06:24:23.190Z,10.52
2023-02-09T06:29:31.821Z,10.50
2023-02-09T06:34:39.153Z,10.49
2023-02-09T06:39:46.787Z,10.50
2023-02-09T06:44:54.335Z,10.48
2023-02-09T06:50:02.356Z,10.47
2023-02-09T06:55:10.374Z,10.46
2023-02-09T07:00:18.714Z,10.45
2023-02-09T07:05:25.947Z,10.44
2023-02-09T07:10:33.395Z,10.43
2023-02-09T07:15:40.775Z,10.40
2023-02-09T07:20:47.964Z,10.42
2023-02-09T07:25:55.196Z,10.39
2023-02-09T07:31:06.229Z,10.38
2023-02-09T07:36:14.392Z,10.40
2023-02-09T07:41:24.013Z,10.41
2023-02-09T07:46:31.315Z,10.43
2023-02-09T07:51:38.529Z,10.46
2023-02-09T07:56:45.914Z,10.47
2023-02-09T08:01:53.117Z,10.49
2023-02-09T08:07:00.608Z,10.48
2023-02-09T08:12:09.393Z,10.47
2023-02-09T08:17:24.634Z,10.45
2023-02-09T08:22:33.430Z,10.43
2023-02-09T08:27:41.235Z,10.41
2023-02-09T08:32:48.434Z,10.42
2023-02-09T08:37:55.918Z,10.40
2023-02-09T08:43:03.675Z,10.40
2023-02-09T08:48:11.239Z,10.35
2023-02-09T08:53:18.578Z,10.35
2023-02-09T08:58:25.947Z,10.37
2023-02-09T09:03:33.924Z,10.43
2023-02-09T09:08:41.487Z,10.44
2023-02-09T09:13:49.401Z,10.45
2023-02-09T09:18:56.896Z,10.46
2023-02-09T09:24:04.240Z,10.43
2023-02-09T09:29:11.980Z,10.44
2023-02-09T09:34:19.332Z,10.42
2023-02-09T09:39:26.974Z,10.43
2023-02-09T09:44:37.660Z,10.49
2023-02-09T09:49:45.268Z,10.54
2023-02-09T09:54:53.123Z,10.60
2023-02-09T10:00:02.449Z,10.64
2023-02-09T10:05:14.393Z,10.69
2023-02-09T10:10:25.974Z,10.73
2023-02-09T10:15:33.835Z,10.76
2023-02-09T10:20:47.097Z,10.76
2023-02-09T10:26:05.075Z,10.78
2023-02-09T10:31:14.525Z,10.78
2023-02-09T10:36:30.190Z,10.77
2023-02-09T10:41:37.803Z,10.80
2023-02-09T10:46:45.432Z,10.81
2023-02-09T10:51:52.836Z,10.79
2023-02-09T10:57:01.903Z,10.77
2023-02-09T11:02:30.438Z,10.78
2023-02-09T11:07:41.100Z,10.77
2023-02-09T11:12:48.067Z,10.75
2023-02-09T11:17:56.317Z,10.73
2023-02-09T11:23:08.974Z,10.71
2023-02-09T11:28:30.463Z,10.70
2023-02-09T11:33:45.085Z,10.71
2023-02-09T11:38:54.876Z,10.67
2023-02-09T11:44:04.628Z,10.63
2023-02-09T11:49:16.846Z,10.62
2023-02-09T11:54:25.330Z,10.60
2023-02-09T11:59:34.988Z,10.58
2023-02-09T12:04:45.684Z,10.56
2023-02-09T12:09:56.633Z,10.55
2023-02-09T12:15:12.745Z,10.50
2023-02-09T12:20:30.778Z,10.50
2023-02-09T12:25:54.262Z,10.47
2023-02-09T12:31:17.927Z,10.45
2023-02-09T12:36:30.283Z,10.42
2023-02-09T12:41:50.739Z,10.37
2023-02-09T12:46:58.648Z,10.38
2023-02-09T12:52:22.179Z,10.36
2023-02-09T12:57:47.475Z,10.35
2023-02-09T13:02:57.047Z,10.27
2023-02-09T13:08:06.039Z,10.28
2023-02-09T13:13:19.517Z,10.29
2023-02-09T13:18:31.140Z,10.27
2023-02-09T13:23:45.161Z,10.27
2023-02-09T13:29:19.236Z,10.24
2023-02-09T13:34:31.783Z,10.24
2023-02-09T13:39:41.081Z,10.21
2023-02-09T13:44:49.357Z,10.18
2023-02-09T13:50:00.428Z,10.17
2023-02-09T13:55:15.694Z,10.16
2023-02-09T14:00:26.683Z,10.14
2023-02-09T14:05:36.883Z,10.14
2023-02-09T14:10:45.612Z,10.13
2023-02-09T14:16:09.595Z,10.14
2023-02-09T14:21:22.118Z,10.13
2023-02-09T14:26:29.859Z,10.10
2023-02-09T14:31:38.096Z,10.10
2023-02-09T14:36:53.473Z,10.09
2023-02-09T14:42:19.705Z,10.08
2023-02-09T14:47:39.056Z,10.03
2023-02-09T14:52:47.590Z,10.03
2023-02-09T14:57:54.631Z,10.04
2023-02-09T15:03:01.692Z,10.03
2023-02-09T15:08:09.787Z,10.02
2023-02-09T15:13:17.504Z,10.01
2023-02-09T15:18:25.349Z,10.01
2023-02-09T15:23:32.498Z,10.00
2023-02-09T15:28:41.030Z,9.99
2023-02-09T15:33:48.225Z,9.97
2023-02-09T15:38:55.438Z,9.95
2023-02-09T15:44:23.597Z,9.94
2023-02-09T15:49:31.645Z,9.95
2023-02-09T15:54:38.785Z,9.94
2023-02-09T15:59:46.721Z,9.97
2023-02-09T16:04:53.928Z,10.04
2023-02-09T16:10:01.336Z,10.12
2023-02-09T16:15:15.829Z,10.21
2023-02-09T16:20:25.906Z,10.34
2023-02-09T16:25:34.145Z,10.37
2023-02-09T16:30:48.957Z,10.41
2023-02-09T16:35:56.580Z,10.46
2023-02-09T16:41:04.170Z,10.47
2023-02-09T16:46:12.491Z,10.47
2023-02-09T16:51:20.663Z,10.48
2023-02-09T16:56:28.274Z,10.55
2023-02-09T17:01:35.765Z,10.64
2023-02-09T17:06:43.243Z,10.69
2023-02-09T17:11:50.604Z,10.74
2023-02-09T17:16:57.923Z,10.78
2023-02-09T17:22:11.279Z,10.77
2023-02-09T17:27:18.752Z,10.78
2023-02-09T17:32:26.274Z,10.75
2023-02-09T17:37:33.644Z,10.71
2023-02-09T17:42:40.946Z,10.69
2023-02-09T17:47:48.376Z,10.68
2023-02-09T17:52:55.519Z,10.71
2023-02-09T17:58:02.747Z,10.72
2023-02-09T18:03:13.706Z,10.75
2023-02-09T18:08:21.073Z,10.80
2023-02-09T18:13:28.808Z,10.79
2023-02-09T18:18:36.137Z,10.81
2023-02-09T18:23:43.171Z,10.81
2023-02-09T18:28:50.791Z,10.80
2023-02-09T18:33:58.632Z,10.80
2023-02-09T18:39:06.185Z,10.80
2023-02-09T18:44:13.910Z,10.81
2023-02-09T18:49:21.800Z,10.80
2023-02-09T18:54:31.579Z,10.80
2023-02-09T18:59:38.860Z,10.81
2023-02-09T19:04:46.540Z,10.84
2023-02-09T19:09:55.845Z,10.88
2023-02-09T19:15:03.391Z,10.89
2023-02-09T19:20:15.007Z,10.89
2023-02-09T19:25:23.148Z,10.90
2023-02-09T19:30:30.420Z,10.90
2023-02-09T19:35:37.998Z,10.92
2023-02-09T19:40:45.247Z,10.90
2023-02-09T19:45:59.148Z,10.91
2023-02-09T19:51:07.580Z,10.94
2023-02-09T19:56:17.828Z,10.94
2023-02-09T20:01:27.688Z,10.92
2023-02-09T20:06:35.545Z,10.93
2023-02-09T20:11:42.590Z,10.93
2023-02-09T20:16:49.503Z,10.91
2023-02-09T20:21:56.834Z,10.93
2023-02-09T20:27:04.472Z,10.91
2023-02-09T20:32:12.565Z,10.92
2023-02-09T20:37:20.484Z,10.90
2023-02-09T20:42:45.272Z,10.92
2023-02-09T20:47:53.224Z,10.94
2023-02-09T20:53:01.881Z,10.93
2023-02-09T20:58:10.813Z,10.92
2023-02-09T21:03:18.272Z,10.93
2023-02-09T21:08:25.732Z,10.91
2023-02-09T21:13:33.417Z,10.90
2023-02-09T21:18:41.256Z,10.92
2023-02-09T21:23:48.582Z,10.92
2023-02-09T21:28:58.344Z,10.92
2023-02-09T21:34:06.181Z,10.91
2023-02-09T21:39:13.611Z,10.91
2023-02-09T21:44:20.839Z,10.92
2023-02-09T21:49:31.929Z,10.93
2023-02-09T21:54:39.375Z,10.92
2023-02-09T21:59:46.476Z,10.91
2023-02-09T22:04:53.975Z,10.92
2023-02-09T22:10:02.477Z,10.92
2023-02-09T22:15:10.493Z,10.92
2023-02-09T22:20:17.945Z,10.93
2023-02-09T22:25:25.443Z,10.93
2023-02-09T22:30:33.011Z,10.90
2023-02-09T22:35:43.480Z,10.91
2023-02-09T22:40:50.760Z,10.91
2023-02-09T22:45:58.857Z,10.91
2023-02-09T22:51:06.598Z,10.91
2023-02-09T22:56:14.201Z,10.90
2023-02-09T23:01:21.756Z,10.89
2023-02-09T23:06:30.188Z,10.90
2023-02-09T23:11:37.761Z,10.90
2023-02-09T23:16:46.366Z,10.88
2023-02-09T23:21:53.788Z,10.87
2023-02-09T23:27:01.045Z,10.89
2023-02-09T23:32:08.516Z,10.87
2023-02-09T23:37:23.602Z,10.86
2023-02-09T23:42:42.188Z,10.88
2023-02-09T23:47:49.427Z,10.87
2023-02-09T23:52:56.960Z,10.85
2023-02-09T23:58:04.534Z,10.85
